Time;durP1;ratioP1;P1;durP2;ratioP2;P2;SDS_P1;SDS_P2;PMS_P1;PMS_P2;Temp;Humidity;BMP_temperature;BMP_pressure;BME280_temperature;BME280_humidity;BME280_pressure;Samples;Min_cycle;Max_cycle;Signal;HPM_P1;HPM_P2
2023/03/24 00:02:27;;;;;;;;;;;;;;;;;;5081841;28;19912;-58
2023/03/24 00:04:57;;;;;;;;;;;;;;;;;;5089938;28;19955;-58
2023/03/24 00:07:23;;;;;;;;;;;;;;;;;;5092027;28;19916;-58
2023/03/24 00:09:49;;;;;;;;;;;;;;;;;;5085080;28;20006;-58
2023/03/24 00:12:17;;;;;;;;;;;;;;;;;;5075191;28;19915;-58
2023/03/24 00:14:45;;;;;;;;;;;;;;;;;;5084577;28;19974;-58
2023/03/24 00:17:16;;;;;;;;;;;;;;;;;;5077684;28;19920;-58
2023/03/24 00:19:44;;;;;;;;;;;;;;;;;;5088874;28;20395;-58
2023/03/24 00:22:13;;;;;;;;;;;;;;;;;;5081171;28;20003;-58
2023/03/24 00:24:39;;;;;;;;;;;;;;;;;;5088241;28;19947;-58
2023/03/24 00:27:05;;;;;;;;;;;;;;;;;;5088713;28;20326;-58
2023/03/24 00:29:32;;;;;;;;;;;;;;;;;;5091591;28;19912;-57
2023/03/24 00:31:58;;;;;;;;;;;;;;;;;;5085298;28;19916;-58
2023/03/24 00:34:24;;;;;;;;;;;;;;;;;;5089616;28;19959;-58
2023/03/24 00:36:50;;;;;;;;;;;;;;;;;;5083998;28;19920;-58
2023/03/24 00:39:16;;;;;;;;;;;;;;;;;;5076847;28;19935;-58
2023/03/24 00:41:44;;;;;;;;;;;;;;;;;;5079905;28;19935;-57
2023/03/24 00:44:16;;;;;;;;;;;;;;;;;;5082641;28;19913;-58
2023/03/24 00:46:44;;;;;;;;;;;;;;;;;;5072017;28;19920;-58
2023/03/24 00:49:11;;;;;;;;;;;;;;;;;;5078524;28;19916;-57
2023/03/24 00:51:37;;;;;;;;;;;;;;;;;;5093952;28;19965;-56
2023/03/24 00:54:03;;;;;;;;;;;;;;;;;;5092234;28;19955;-58
2023/03/24 00:56:30;;;;;;;;;;;;;;;;;;5090891;28;19918;-59
2023/03/24 00:58:56;;;;;;;;;;;;;;;;;;5088776;28;19935;-58
2023/03/24 01:01:22;;;;;;;;;;;;;;;;;;5082037;28;19912;-58
2023/03/24 01:03:49;;;;;;;;;;;;;;;;;;5094925;28;19920;-58
2023/03/24 01:06:15;;;;;;;;;;;;;;;;;;5095794;28;19916;-58
2023/03/24 01:08:42;;;;;;;;;;;;;;;;;;5094866;28;19924;-58
2023/03/24 01:11:09;;;;;;;;;;;;;;;;;;5086183;28;19994;-57
2023/03/24 01:13:35;;;;;;;;;;;;;;;;;;5091810;28;19938;-57
2023/03/24 01:16:02;;;;;;;;;;;;;;;;;;5086523;28;20371;-57
2023/03/24 01:18:28;;;;;;;;;;;;;;;;;;5075661;28;19923;-57
2023/03/24 01:20:54;;;;;;;;;;;;;;;;;;5093535;28;19916;-58
2023/03/24 01:23:20;;;;;;;;;;;;;;;;;;5094750;28;19999;-57
2023/03/24 01:25:47;;;;;;;;;;;;;;;;;;5094352;28;19958;-58
2023/03/24 01:28:12;;;;;;;;;;;;;;;;;;5079015;28;19986;-58
2023/03/24 01:30:38;;;;;;;;;;;;;;;;;;5074476;28;20316;-58
2023/03/24 01:33:04;;;;;;;;;;;;;;;;;;5075031;28;19913;-58
2023/03/24 01:35:30;;;;;;;;;;;;;;;;;;5091432;28;19917;-57
2023/03/24 01:37:56;;;;;;;;;;;;;;;;;;5092455;28;19943;-58
2023/03/24 01:40:22;;;;;;;;;;;;;;;;;;5088435;28;20328;-57
2023/03/24 01:42:49;;;;;;;;;;;;;;;;;;5090023;28;19981;-57
2023/03/24 01:45:15;;;;;;;;;;;;;;;;;;5086005;28;19928;-58
2023/03/24 01:47:41;;;;;;;;;;;;;;;;;;5090335;28;20375;-57
2023/03/24 01:50:07;;;;;;;;;;;;;;;;;;5091131;28;19935;-57
2023/03/24 01:52:33;;;;;;;;;;;;;;;;;;5093853;28;19973;-57
2023/03/24 01:54:59;;;;;;;;;;;;;;;;;;5083786;28;19952;-57
2023/03/24 01:57:25;;;;;;;;;;;;;;;;;;5080502;28;20332;-58
2023/03/24 01:59:51;;;;;;;;;;;;;;;;;;5091607;28;19912;-57
2023/03/24 02:02:17;;;;;;;;;;;;;;;;;;5079660;28;19978;-57
2023/03/24 02:04:43;;;;;;;;;;;;;;;;;;5087516;28;20006;-57
2023/03/24 02:07:09;;;;;;;;;;;;;;;;;;5081707;28;19916;-57
2023/03/24 02:09:34;;;;;;;;;;;;;;;;;;5091947;28;20013;-57
2023/03/24 02:12:01;;;;;;;;;;;;;;;;;;5093075;28;20383;-57
2023/03/24 02:14:27;;;;;;;;;;;;;;;;;;5093017;28;19920;-57
2023/03/24 02:16:53;;;;;;;;;;;;;;;;;;5084251;28;20279;-57
2023/03/24 02:19:22;;;;;;;;;;;;;;;;;;5088661;28;19909;-57
2023/03/24 02:21:48;;;;;;;;;;;;;;;;;;5084143;28;19961;-57
2023/03/24 02:24:14;;;;;;;;;;;;;;;;;;5093282;28;20368;-57
2023/03/24 02:26:40;;;;;;;;;;;;;;;;;;5094195;28;19947;-58
2023/03/24 02:29:06;;;;;;;;;;;;;;;;;;5090951;28;19966;-57
2023/03/24 02:31:32;;;;;;;;;;;;;;;;;;5079844;28;19939;-58
2023/03/24 02:33:58;;;;;;;;;;;;;;;;;;5081939;28;20322;-57
2023/03/24 02:36:24;;;;;;;;;;;;;;;;;;5087685;28;19959;-57
2023/03/24 02:38:52;;;;;;;;;;;;;;;;;;5081365;28;19916;-57
2023/03/24 02:41:18;;;;;;;;;;;;;;;;;;5079791;28;20241;-58
2023/03/24 02:43:44;;;;;;;;;;;;;;;;;;5078636;28;19970;-57
2023/03/24 02:46:12;;;;;;;;;;;;;;;;;;5079580;28;19943;-57
2023/03/24 02:48:38;;;;;;;;;;;;;;;;;;5079584;28;19927;-57
2023/03/24 02:51:04;;;;;;;;;;;;;;;;;;5088643;28;19957;-58
2023/03/24 02:53:31;;;;;;;;;;;;;;;;;;5079737;28;20453;-57
2023/03/24 02:55:56;;;;;;;;;;;;;;;;;;5081828;28;19923;-57
2023/03/24 02:58:22;;;;;;;;;;;;;;;;;;5072907;28;20003;-57
2023/03/24 03:00:48;;;;;;;;;;;;;;;;;;5078205;28;19912;-57
2023/03/24 03:03:14;;;;;;;;;;;;;;;;;;5072415;28;19994;-57
2023/03/24 03:05:40;;;;;;;;;;;;;;;;;;5072642;28;19912;-58
2023/03/24 03:08:06;;;;;;;;;;;;;;;;;;5077731;28;19912;-57
2023/03/24 03:10:32;;;;;;;;;;;;;;;;;;5086734;28;19959;-57
2023/03/24 03:12:58;;;;;;;;;;;;;;;;;;5085589;28;19920;-57
2023/03/24 03:15:24;;;;;;;;;;;;;;;;;;5085331;28;19971;-57
2023/03/24 03:17:51;;;;;;;;;;;;;;;;;;5072622;28;19913;-57
2023/03/24 03:20:19;;;;;;;;;;;;;;;;;;5088061;28;19920;-57
2023/03/24 03:22:45;;;;;;;;;;;;;;;;;;5090874;28;19920;-57
2023/03/24 03:25:11;;;;;;;;;;;;;;;;;;5089980;28;19966;-58
2023/03/24 03:27:38;;;;;;;;;;;;;;;;;;5076358;28;20007;-57
2023/03/24 03:30:04;;;;;;;;;;;;;;;;;;5076358;28;19956;-57
2023/03/24 03:32:29;;;;;;;;;;;;;;;;;;5071720;28;19970;-57
2023/03/24 03:34:55;;;;;;;;;;;;;;;;;;5087108;28;19935;-57
2023/03/24 03:37:21;;;;;;;;;;;;;;;;;;5084945;28;19956;-58
2023/03/24 03:39:47;;;;;;;;;;;;;;;;;;5073019;28;19963;-57
2023/03/24 03:42:13;;;;;;;;;;;;;;;;;;5072081;28;19916;-57
2023/03/24 03:44:39;;;;;;;;;;;;;;;;;;5084354;28;20622;-57
2023/03/24 03:47:05;;;;;;;;;;;;;;;;;;5086724;28;19923;-58
2023/03/24 03:49:31;;;;;;;;;;;;;;;;;;5092459;28;19919;-57
2023/03/24 03:51:57;;;;;;;;;;;;;;;;;;5091290;28;19978;-57
2023/03/24 03:54:23;;;;;;;;;;;;;;;;;;5091107;28;19962;-57
2023/03/24 03:56:49;;;;;;;;;;;;;;;;;;5074345;28;19948;-57
2023/03/24 03:59:15;;;;;;;;;;;;;;;;;;5073056;28;19908;-57
2023/03/24 04:01:41;;;;;;;;;;;;;;;;;;5078524;28;19918;-57
2023/03/24 04:04:06;;;;;;;;;;;;;;;;;;5081730;28;19916;-57
2023/03/24 04:06:32;;;;;;;;;;;;;;;;;;5088850;28;20045;-57
2023/03/24 04:09:00;;;;;;;;;;;;;;;;;;5077785;28;19965;-57
2023/03/24 04:11:26;;;;;;;;;;;;;;;;;;5075581;28;20333;-57
2023/03/24 04:13:52;;;;;;;;;;;;;;;;;;5089307;28;19947;-57
2023/03/24 04:16:19;;;;;;;;;;;;;;;;;;5078099;28;20376;-58
2023/03/24 04:18:45;;;;;;;;;;;;;;;;;;5090239;28;20283;-57
2023/03/24 04:21:11;;;;;;;;;;;;;;;;;;5091978;28;20006;-57
2023/03/24 04:23:38;;;;;;;;;;;;;;;;;;5090161;28;20391;-58
2023/03/24 04:26:04;;;;;;;;;;;;;;;;;;5094083;28;19909;-57
2023/03/24 04:28:30;;;;;;;;;;;;;;;;;;5096229;28;19919;-58
2023/03/24 04:30:56;;;;;;;;;;;;;;;;;;5089824;28;19917;-57
2023/03/24 04:33:24;;;;;;;;;;;;;;;;;;5094431;28;20423;-57
2023/03/24 04:35:51;;;;;;;;;;;;;;;;;;5090740;28;20276;-57
2023/03/24 04:38:17;;;;;;;;;;;;;;;;;;5089496;28;19916;-58
2023/03/24 04:40:42;;;;;;;;;;;;;;;;;;5079869;28;20347;-58
2023/03/24 04:43:08;;;;;;;;;;;;;;;;;;5084253;28;20395;-57
2023/03/24 04:45:35;;;;;;;;;;;;;;;;;;5095006;28;19912;-58
2023/03/24 04:48:01;;;;;;;;;;;;;;;;;;5095999;28;19926;-57
2023/03/24 04:50:29;;;;;;;;;;;;;;;;;;5093402;28;20265;-57
2023/03/24 04:52:55;;;;;;;;;;;;;;;;;;5095217;28;19999;-57
2023/03/24 04:55:21;;;;;;;;;;;;;;;;;;5074919;28;19930;-57
2023/03/24 04:57:47;;;;;;;;;;;;;;;;;;5075646;28;19943;-57
2023/03/24 05:00:13;;;;;;;;;;;;;;;;;;5079921;28;19966;-57
2023/03/24 05:02:38;;;;;;;;;;;;;;;;;;5074635;28;19920;-57
2023/03/24 05:05:04;;;;;;;;;;;;;;;;;;5076213;28;20074;-58
2023/03/24 05:07:31;;;;;;;;;;;;;;;;;;5090296;28;19912;-57
2023/03/24 05:09:57;;;;;;;;;;;;;;;;;;5085563;28;20022;-57
2023/03/24 05:12:23;;;;;;;;;;;;;;;;;;5092773;28;20020;-58
2023/03/24 05:14:49;;;;;;;;;;;;;;;;;;5087377;28;20007;-57
2023/03/24 05:17:15;;;;;;;;;;;;;;;;;;5082635;28;19923;-58
2023/03/24 05:19:41;;;;;;;;;;;;;;;;;;5079794;28;19960;-58
2023/03/24 05:22:07;;;;;;;;;;;;;;;;;;5091952;28;19944;-57
2023/03/24 05:24:33;;;;;;;;;;;;;;;;;;5089494;28;19931;-57
2023/03/24 05:26:59;;;;;;;;;;;;;;;;;;5075485;28;20351;-57
2023/03/24 05:29:25;;;;;;;;;;;;;;;;;;5087708;28;19955;-57
2023/03/24 05:31:51;;;;;;;;;;;;;;;;;;5085900;28;19970;-58
2023/03/24 05:34:17;;;;;;;;;;;;;;;;;;5088233;28;20030;-57
2023/03/24 05:36:43;;;;;;;;;;;;;;;;;;5081515;28;19996;-57
2023/03/24 05:39:09;;;;;;;;;;;;;;;;;;5082681;28;19918;-57
2023/03/24 05:41:35;;;;;;;;;;;;;;;;;;5074749;28;19962;-57
2023/03/24 05:44:01;;;;;;;;;;;;;;;;;;5078106;28;19960;-58
2023/03/24 05:46:27;;;;;;;;;;;;;;;;;;5075268;28;20394;-57
2023/03/24 05:48:53;;;;;;;;;;;;;;;;;;5091868;28;19912;-57
2023/03/24 05:51:19;;;;;;;;;;;;;;;;;;5083474;28;20332;-58
2023/03/24 05:53:45;;;;;;;;;;;;;;;;;;5093924;28;19953;-57
2023/03/24 05:56:11;;;;;;;;;;;;;;;;;;5086638;28;20288;-57
2023/03/24 05:58:38;;;;;;;;;;;;;;;;;;5084089;28;19967;-57
2023/03/24 06:01:05;;;;;;;;;;;;;;;;;;5083131;28;19919;-57
2023/03/24 06:03:33;;;;;;;;;;;;;;;;;;5075566;28;19960;-58
2023/03/24 06:05:59;;;;;;;;;;;;;;;;;;5077890;28;19916;-58
2023/03/24 06:08:27;;;;;;;;;;;;;;;;;;5086176;28;19948;-58
2023/03/24 06:10:53;;;;;;;;;;;;;;;;;;5093090;28;20349;-57
2023/03/24 06:13:19;;;;;;;;;;;;;;;;;;5078355;28;19917;-58
2023/03/24 06:15:45;;;;;;;;;;;;;;;;;;5087157;28;20351;-58
2023/03/24 06:18:13;;;;;;;;;;;;;;;;;;5087430;28;19918;-57
2023/03/24 06:20:40;;;;;;;;;;;;;;;;;;5086889;28;20280;-57
2023/03/24 06:23:06;;;;;;;;;;;;;;;;;;5080132;28;19912;-57
2023/03/24 06:25:32;;;;;;;;;;;;;;;;;;5089547;28;19951;-57
2023/03/24 06:28:02;;;;;;;;;;;;;;;;;;5072121;28;19920;-57
2023/03/24 06:30:28;;;;;;;;;;;;;;;;;;5083523;28;19923;-58
2023/03/24 06:32:55;;;;;;;;;;;;;;;;;;5089936;28;19955;-57
2023/03/24 06:35:21;;;;;;;;;;;;;;;;;;5088312;28;19939;-58
2023/03/24 06:37:46;;;;;;;;;;;;;;;;;;5082861;28;19960;-57
2023/03/24 06:40:14;;;;;;;;;;;;;;;;;;5089242;28;19980;-57
2023/03/24 06:42:40;;;;;;;;;;;;;;;;;;5086714;28;19912;-57
2023/03/24 06:45:06;;;;;;;;;;;;;;;;;;5079199;28;20420;-57
2023/03/24 06:47:32;;;;;;;;;;;;;;;;;;5085498;28;20005;-57
2023/03/24 06:49:58;;;;;;;;;;;;;;;;;;5078356;28;19962;-58
2023/03/24 06:52:26;;;;;;;;;;;;;;;;;;5078583;28;19952;-58
2023/03/24 06:54:52;;;;;;;;;;;;;;;;;;5091870;28;19923;-54
2023/03/24 06:57:18;;;;;;;;;;;;;;;;;;5085101;28;20399;-53
2023/03/24 06:59:45;;;;;;;;;;;;;;;;;;5077456;28;19919;-57
2023/03/24 07:02:11;;;;;;;;;;;;;;;;;;5079025;28;19920;-57
2023/03/24 07:04:37;;;;;;;;;;;;;;;;;;5073473;28;19998;-57
2023/03/24 07:07:03;;;;;;;;;;;;;;;;;;5089401;28;20417;-57
2023/03/24 07:09:29;;;;;;;;;;;;;;;;;;5090675;28;20040;-57
2023/03/24 07:11:55;;;;;;;;;;;;;;;;;;5077176;28;19909;-57
2023/03/24 07:14:24;;;;;;;;;;;;;;;;;;5082347;28;19954;-56
2023/03/24 07:16:50;;;;;;;;;;;;;;;;;;5081419;28;19957;-58
2023/03/24 07:19:16;;;;;;;;;;;;;;;;;;5079872;28;19912;-58
2023/03/24 07:21:43;;;;;;;;;;;;;;;;;;5080713;28;19978;-58
2023/03/24 07:24:09;;;;;;;;;;;;;;;;;;5087604;28;19916;-57
2023/03/24 07:26:35;;;;;;;;;;;;;;;;;;5075420;28;20012;-57
2023/03/24 07:29:01;;;;;;;;;;;;;;;;;;5072227;28;19912;-57
2023/03/24 07:31:27;;;;;;;;;;;;;;;;;;5073628;28;19990;-57
2023/03/24 07:33:52;;;;;;;;;;;;;;;;;;5084255;28;20441;-58
2023/03/24 07:36:18;;;;;;;;;;;;;;;;;;5088471;28;19990;-57
2023/03/24 07:38:44;;;;;;;;;;;;;;;;;;5080468;28;19920;-57
2023/03/24 07:41:10;;;;;;;;;;;;;;;;;;5080707;28;20402;-57
2023/03/24 07:43:36;;;;;;;;;;;;;;;;;;5072488;28;19915;-57
2023/03/24 07:46:02;;;;;;;;;;;;;;;;;;5090982;28;19912;-57
2023/03/24 07:48:28;;;;;;;;;;;;;;;;;;5091532;28;19962;-57
2023/03/24 07:50:54;;;;;;;;;;;;;;;;;;5088773;28;20009;-57
2023/03/24 07:53:20;;;;;;;;;;;;;;;;;;5076571;28;19924;-57
2023/03/24 07:55:46;;;;;;;;;;;;;;;;;;5082211;28;20479;-57
2023/03/24 07:58:12;;;;;;;;;;;;;;;;;;5091488;28;19939;-57
2023/03/24 08:00:38;;;;;;;;;;;;;;;;;;5078711;28;20007;-57
2023/03/24 08:03:08;;;;;;;;;;;;;;;;;;5083425;28;19912;-57
2023/03/24 08:05:34;;;;;;;;;;;;;;;;;;5081194;28;19920;-57
2023/03/24 08:08:01;;;;;;;;;;;;;;;;;;5071386;28;20329;-57
2023/03/24 08:10:27;;;;;;;;;;;;;;;;;;5072438;28;19940;-57
2023/03/24 08:12:53;;;;;;;;;;;;;;;;;;5072515;28;20371;-57
2023/03/24 08:15:19;;;;;;;;;;;;;;;;;;5084308;28;20355;-57
2023/03/24 08:17:45;;;;;;;;;;;;;;;;;;5076165;28;19912;-57
2023/03/24 08:20:13;;;;;;;;;;;;;;;;;;5070658;28;19916;-56
2023/03/24 08:22:39;;;;;;;;;;;;;;;;;;5075161;28;19943;-58
2023/03/24 08:25:05;;;;;;;;;;;;;;;;;;5088037;28;19943;-57
2023/03/24 08:27:31;;;;;;;;;;;;;;;;;;5090171;28;20061;-57
2023/03/24 08:29:57;;;;;;;;;;;;;;;;;;5075823;28;20356;-57
2023/03/24 08:32:23;;;;;;;;;;;;;;;;;;5071036;28;19912;-58
2023/03/24 08:34:49;;;;;;;;;;;;;;;;;;5071859;28;19991;-57
2023/03/24 08:37:15;;;;;;;;;;;;;;;;;;5071477;28;19955;-57
2023/03/24 08:39:40;;;;;;;;;;;;;;;;;;5070887;28;19919;-57
2023/03/24 08:42:06;;;;;;;;;;;;;;;;;;5071194;28;19915;-57
2023/03/24 08:44:32;;;;;;;;;;;;;;;;;;5072527;28;20368;-58
2023/03/24 08:46:58;;;;;;;;;;;;;;;;;;5072285;28;19963;-57
2023/03/24 08:49:24;;;;;;;;;;;;;;;;;;5070141;28;20404;-57
2023/03/24 08:51:50;;;;;;;;;;;;;;;;;;5076210;28;20007;-57
2023/03/24 08:54:16;;;;;;;;;;;;;;;;;;5070839;28;19908;-58
2023/03/24 08:56:42;;;;;;;;;;;;;;;;;;5073931;28;20041;-58
2023/03/24 08:59:08;;;;;;;;;;;;;;;;;;5073842;28;20471;-57
2023/03/24 09:01:34;;;;;;;;;;;;;;;;;;5072082;28;20053;-57
2023/03/24 09:04:00;;;;;;;;;;;;;;;;;;5074413;28;19996;-57
2023/03/24 09:06:26;;;;;;;;;;;;;;;;;;5082969;28;19960;-57
2023/03/24 09:08:52;;;;;;;;;;;;;;;;;;5082025;28;19972;-58
2023/03/24 09:11:18;;;;;;;;;;;;;;;;;;5078344;28;20001;-58
2023/03/24 09:13:44;;;;;;;;;;;;;;;;;;5079339;28;19920;-58
2023/03/24 09:16:10;;;;;;;;;;;;;;;;;;5083053;28;20019;-57
2023/03/24 09:18:36;;;;;;;;;;;;;;;;;;5093607;28;20383;-57
2023/03/24 09:21:02;;;;;;;;;;;;;;;;;;5090142;28;19916;-58
2023/03/24 09:23:30;;;;;;;;;;;;;;;;;;5089692;28;20011;-58
2023/03/24 09:25:56;;;;;;;;;;;;;;;;;;5090640;28;19966;-57
2023/03/24 09:28:22;;;;;;;;;;;;;;;;;;5082329;28;19923;-57
2023/03/24 09:30:48;;;;;;;;;;;;;;;;;;5081456;28;19955;-57
2023/03/24 09:33:14;;;;;;;;;;;;;;;;;;5091433;28;19913;-57
2023/03/24 09:35:40;;;;;;;;;;;;;;;;;;5093108;28;20470;-57
2023/03/24 09:38:06;;;;;;;;;;;;;;;;;;5078119;28;19919;-57
2023/03/24 09:40:31;;;;;;;;;;;;;;;;;;5092562;28;19916;-58
2023/03/24 09:42:57;;;;;;;;;;;;;;;;;;5085550;28;19951;-57
2023/03/24 09:45:23;;;;;;;;;;;;;;;;;;5093972;28;19943;-57
2023/03/24 09:47:50;;;;;;;;;;;;;;;;;;5088502;28;19913;-57
2023/03/24 09:50:15;;;;;;;;;;;;;;;;;;5087860;28;20291;-57
2023/03/24 09:52:41;;;;;;;;;;;;;;;;;;5082399;28;19955;-57
2023/03/24 09:55:09;;;;;;;;;;;;;;;;;;5090730;28;19952;-57
2023/03/24 09:57:36;;;;;;;;;;;;;;;;;;5082271;28;19908;-57
2023/03/24 10:00:02;;;;;;;;;;;;;;;;;;5078575;28;19912;-57
2023/03/24 10:02:28;;;;;;;;;;;;;;;;;;5088399;28;19998;-57
2023/03/24 10:04:55;;;;;;;;;;;;;;;;;;5089869;28;19958;-57
2023/03/24 10:07:21;;;;;;;;;;;;;;;;;;5085744;28;19920;-57
2023/03/24 10:09:47;;;;;;;;;;;;;;;;;;5077546;28;19920;-57
2023/03/24 10:12:13;;;;;;;;;;;;;;;;;;5081494;28;20003;-57
2023/03/24 10:14:39;;;;;;;;;;;;;;;;;;5087763;28;20265;-58
2023/03/24 10:17:05;;;;;;;;;;;;;;;;;;5079480;28;19956;-57
2023/03/24 10:19:31;;;;;;;;;;;;;;;;;;5082601;28;20011;-57
2023/03/24 10:21:57;;;;;;;;;;;;;;;;;;5087039;28;20348;-57
2023/03/24 10:24:23;;;;;;;;;;;;;;;;;;5077479;28;19916;-57
2023/03/24 10:26:49;;;;;;;;;;;;;;;;;;5089089;28;19951;-57
2023/03/24 10:29:16;;;;;;;;;;;;;;;;;;5093220;28;19909;-57
2023/03/24 10:31:41;;;;;;;;;;;;;;;;;;5076206;28;19916;-57
2023/03/24 10:34:07;;;;;;;;;;;;;;;;;;5081661;28;19919;-57
2023/03/24 10:36:34;;;;;;;;;;;;;;;;;;5086837;28;20409;-57
2023/03/24 10:39:00;;;;;;;;;;;;;;;;;;5080947;28;19916;-56
2023/03/24 10:41:26;;;;;;;;;;;;;;;;;;5086801;28;19956;-57
2023/03/24 10:43:52;;;;;;;;;;;;;;;;;;5087385;28;19967;-57
2023/03/24 10:46:18;;;;;;;;;;;;;;;;;;5091412;28;20008;-57
2023/03/24 10:48:44;;;;;;;;;;;;;;;;;;5092804;28;19915;-56
2023/03/24 10:51:11;;;;;;;;;;;;;;;;;;5070871;28;19963;-57
2023/03/24 10:53:38;;;;;;;;;;;;;;;;;;5083362;28;19912;-56
2023/03/24 10:56:04;;;;;;;;;;;;;;;;;;5086147;28;19973;-57
2023/03/24 10:58:30;;;;;;;;;;;;;;;;;;5080598;28;19908;-57
2023/03/24 11:00:56;;;;;;;;;;;;;;;;;;5086488;28;20003;-57
2023/03/24 11:03:22;;;;;;;;;;;;;;;;;;5080272;28;19915;-57
2023/03/24 11:05:48;;;;;;;;;;;;;;;;;;5092090;28;19951;-58
2023/03/24 11:08:14;;;;;;;;;;;;;;;;;;5086583;28;20339;-58
2023/03/24 11:10:40;;;;;;;;;;;;;;;;;;5074565;28;19924;-57
2023/03/24 11:13:06;;;;;;;;;;;;;;;;;;5087066;28;19919;-58
2023/03/24 11:15:32;;;;;;;;;;;;;;;;;;5085833;28;19916;-58
2023/03/24 11:18:01;;;;;;;;;;;;;;;;;;5086209;28;19949;-60
2023/03/24 11:20:27;;;;;;;;;;;;;;;;;;5090894;28;19912;-60
2023/03/24 11:22:53;;;;;;;;;;;;;;;;;;5091923;28;19994;-60
2023/03/24 11:25:19;;;;;;;;;;;;;;;;;;5077495;28;20435;-60
2023/03/24 11:27:45;;;;;;;;;;;;;;;;;;5075141;28;19912;-60
2023/03/24 11:30:11;;;;;;;;;;;;;;;;;;5090545;28;19919;-59
2023/03/24 11:32:37;;;;;;;;;;;;;;;;;;5092276;28;19908;-60
2023/03/24 11:35:03;;;;;;;;;;;;;;;;;;5091717;28;19959;-59
2023/03/24 11:37:29;;;;;;;;;;;;;;;;;;5091578;28;19912;-60
2023/03/24 11:39:55;;;;;;;;;;;;;;;;;;5083250;28;19912;-59
2023/03/24 11:42:21;;;;;;;;;;;;;;;;;;5082504;28;19955;-60
2023/03/24 11:44:47;;;;;;;;;;;;;;;;;;5081429;28;19913;-60
2023/03/24 11:47:13;;;;;;;;;;;;;;;;;;5079073;28;19920;-60
2023/03/24 11:49:39;;;;;;;;;;;;;;;;;;5085432;28;19923;-60
2023/03/24 11:52:05;;;;;;;;;;;;;;;;;;5083664;28;19912;-60
2023/03/24 11:54:31;;;;;;;;;;;;;;;;;;5090938;28;19965;-59
2023/03/24 11:56:57;;;;;;;;;;;;;;;;;;5079478;28;19951;-59
2023/03/24 11:59:23;;;;;;;;;;;;;;;;;;5080487;28;20001;-60
2023/03/24 12:01:49;;;;;;;;;;;;;;;;;;5086891;28;20017;-59
2023/03/24 12:04:15;;;;;;;;;;;;;;;;;;5075212;28;20434;-60
2023/03/24 12:06:41;;;;;;;;;;;;;;;;;;5071512;28;19913;-60
2023/03/24 12:09:08;;;;;;;;;;;;;;;;;;5072593;28;20519;-60
2023/03/24 12:11:34;;;;;;;;;;;;;;;;;;5080739;28;20644;-59
2023/03/24 12:14:00;;;;;;;;;;;;;;;;;;5070559;28;19947;-60
2023/03/24 12:16:26;;;;;;;;;;;;;;;;;;5078669;28;19923;-60
2023/03/24 12:18:52;;;;;;;;;;;;;;;;;;5088650;28;19947;-60
2023/03/24 12:21:17;;;;;;;;;;;;;;;;;;5080505;28;19915;-60
2023/03/24 12:23:43;;;;;;;;;;;;;;;;;;5085390;28;20806;-60
2023/03/24 12:26:09;;;;;;;;;;;;;;;;;;5075670;28;19957;-60
2023/03/24 12:28:35;;;;;;;;;;;;;;;;;;5085250;28;20027;-60
2023/03/24 12:31:02;;;;;;;;;;;;;;;;;;5082907;28;20002;-60
2023/03/24 12:33:28;;;;;;;;;;;;;;;;;;5086583;28;20600;-60
2023/03/24 12:35:53;;;;;;;;;;;;;;;;;;5087256;28;19916;-60
2023/03/24 12:38:19;;;;;;;;;;;;;;;;;;5089908;28;19912;-60
2023/03/24 12:40:45;;;;;;;;;;;;;;;;;;5077901;28;19955;-60
2023/03/24 12:43:11;;;;;;;;;;;;;;;;;;5083079;28;19947;-60
2023/03/24 12:45:37;;;;;;;;;;;;;;;;;;5080061;28;19935;-60
2023/03/24 12:48:03;;;;;;;;;;;;;;;;;;5079456;28;19919;-60
2023/03/24 12:50:29;;;;;;;;;;;;;;;;;;5092964;28;19960;-60
2023/03/24 12:52:55;;;;;;;;;;;;;;;;;;5095133;28;19922;-60
2023/03/24 12:55:24;;;;;;;;;;;;;;;;;;5080289;28;19912;-60
2023/03/24 12:57:49;;;;;;;;;;;;;;;;;;5087721;28;19916;-60
2023/03/24 13:00:15;;;;;;;;;;;;;;;;;;5081539;28;19942;-60
2023/03/24 13:02:41;;;;;;;;;;;;;;;;;;5083067;28;19955;-60
2023/03/24 13:05:07;;;;;;;;;;;;;;;;;;5090144;28;20311;-60
2023/03/24 13:07:36;;;;;;;;;;;;;;;;;;5083693;28;19912;-60
2023/03/24 13:10:05;;;;;;;;;;;;;;;;;;5079514;28;19969;-60
2023/03/24 13:12:31;;;;;;;;;;;;;;;;;;5084847;28;20276;-60
2023/03/24 13:14:57;;;;;;;;;;;;;;;;;;5083552;28;19952;-60
2023/03/24 13:17:23;;;;;;;;;;;;;;;;;;5086125;28;20007;-59
2023/03/24 13:19:49;;;;;;;;;;;;;;;;;;5088876;28;20299;-60
2023/03/24 13:22:15;;;;;;;;;;;;;;;;;;5093980;28;20374;-60
2023/03/24 13:24:41;;;;;;;;;;;;;;;;;;5086755;28;19999;-60
2023/03/24 13:27:07;;;;;;;;;;;;;;;;;;5074966;28;19920;-60
2023/03/24 13:29:33;;;;;;;;;;;;;;;;;;5070750;28;19951;-60
2023/03/24 13:31:59;;;;;;;;;;;;;;;;;;5070431;28;19917;-60
2023/03/24 13:34:24;;;;;;;;;;;;;;;;;;5070659;28;19919;-60
2023/03/24 13:36:51;;;;;;;;;;;;;;;;;;5075081;28;20399;-61
2023/03/24 13:39:17;;;;;;;;;;;;;;;;;;5085524;28;20364;-60
2023/03/24 13:41:43;;;;;;;;;;;;;;;;;;5085354;28;19947;-60
2023/03/24 13:44:09;;;;;;;;;;;;;;;;;;5094409;28;19912;-60
2023/03/24 13:46:35;;;;;;;;;;;;;;;;;;5081999;28;19916;-61
2023/03/24 13:49:01;;;;;;;;;;;;;;;;;;5085823;28;19926;-61
2023/03/24 13:51:27;;;;;;;;;;;;;;;;;;5090526;28;19959;-61
2023/03/24 13:53:53;;;;;;;;;;;;;;;;;;5085231;28;19954;-61
2023/03/24 13:56:19;;;;;;;;;;;;;;;;;;5076742;28;19970;-61
2023/03/24 13:58:45;;;;;;;;;;;;;;;;;;5085623;28;19912;-61
2023/03/24 14:01:11;;;;;;;;;;;;;;;;;;5084757;28;19954;-61
2023/03/24 14:03:37;;;;;;;;;;;;;;;;;;5073690;28;20291;-61
2023/03/24 14:06:03;;;;;;;;;;;;;;;;;;5091449;28;19912;-61
2023/03/24 14:08:29;;;;;;;;;;;;;;;;;;5089529;28;19922;-61
2023/03/24 14:10:55;;;;;;;;;;;;;;;;;;5086945;28;19987;-61
2023/03/24 14:13:21;;;;;;;;;;;;;;;;;;5076878;28;20394;-61
2023/03/24 14:15:46;;;;;;;;;;;;;;;;;;5085544;28;19920;-61
2023/03/24 14:18:12;;;;;;;;;;;;;;;;;;5086479;28;19912;-61
2023/03/24 14:20:38;;;;;;;;;;;;;;;;;;5082328;28;20372;-61
2023/03/24 14:23:04;;;;;;;;;;;;;;;;;;5075597;28;20000;-61
2023/03/24 14:25:30;;;;;;;;;;;;;;;;;;5088406;28;19912;-61
2023/03/24 14:27:56;;;;;;;;;;;;;;;;;;5076657;28;19951;-61
2023/03/24 14:30:22;;;;;;;;;;;;;;;;;;5072377;28;20418;-61
2023/03/24 14:32:48;;;;;;;;;;;;;;;;;;5076042;28;19909;-61
2023/03/24 14:35:14;;;;;;;;;;;;;;;;;;5075892;28;20291;-61
2023/03/24 14:37:40;;;;;;;;;;;;;;;;;;5072044;28;19912;-61
2023/03/24 14:40:06;;;;;;;;;;;;;;;;;;5081756;28;19919;-61
2023/03/24 14:42:32;;;;;;;;;;;;;;;;;;5074256;28;19994;-61
2023/03/24 14:44:58;;;;;;;;;;;;;;;;;;5080045;28;19916;-61
2023/03/24 14:47:24;;;;;;;;;;;;;;;;;;5088908;28;20306;-61
2023/03/24 14:49:50;;;;;;;;;;;;;;;;;;5083894;28;19912;-61
2023/03/24 14:52:16;;;;;;;;;;;;;;;;;;5089152;28;19962;-61
2023/03/24 14:54:44;;;;;;;;;;;;;;;;;;5090339;28;20015;-60
2023/03/24 14:57:10;;;;;;;;;;;;;;;;;;5072227;28;20012;-61
2023/03/24 14:59:36;;;;;;;;;;;;;;;;;;5077374;28;19954;-61
2023/03/24 15:02:03;;;;;;;;;;;;;;;;;;5086704;28;20280;-61
2023/03/24 15:04:32;;;;;;;;;;;;;;;;;;5088456;28;19961;-61
2023/03/24 15:06:58;;;;;;;;;;;;;;;;;;5072254;28;19917;-61
2023/03/24 15:09:24;;;;;;;;;;;;;;;;;;5087409;28;19963;-61
2023/03/24 15:11:50;;;;;;;;;;;;;;;;;;5079056;28;19983;-61
2023/03/24 15:14:16;;;;;;;;;;;;;;;;;;5080253;28;19925;-61
2023/03/24 15:16:42;;;;;;;;;;;;;;;;;;5079847;28;19916;-61
2023/03/24 15:19:08;;;;;;;;;;;;;;;;;;5087763;28;19965;-61
2023/03/24 15:21:34;;;;;;;;;;;;;;;;;;5082232;28;19955;-61
2023/03/24 15:24:00;;;;;;;;;;;;;;;;;;5076123;28;20008;-61
2023/03/24 15:26:26;;;;;;;;;;;;;;;;;;5075857;28;19913;-61
2023/03/24 15:28:52;;;;;;;;;;;;;;;;;;5072203;28;20010;-61
2023/03/24 15:31:19;;;;;;;;;;;;;;;;;;5081769;28;20300;-61
2023/03/24 15:33:45;;;;;;;;;;;;;;;;;;5086733;28;19923;-60
2023/03/24 15:36:11;;;;;;;;;;;;;;;;;;5075703;28;19931;-61
2023/03/24 15:38:37;;;;;;;;;;;;;;;;;;5085080;28;20392;-61
2023/03/24 15:41:03;;;;;;;;;;;;;;;;;;5078129;28;19914;-61
2023/03/24 15:43:29;;;;;;;;;;;;;;;;;;5086189;28;20576;-61
2023/03/24 15:45:55;;;;;;;;;;;;;;;;;;5083811;28;19961;-61
2023/03/24 15:48:21;;;;;;;;;;;;;;;;;;5083278;28;19931;-61
2023/03/24 15:50:47;;;;;;;;;;;;;;;;;;5082565;28;19947;-61
2023/03/24 15:53:13;;;;;;;;;;;;;;;;;;5078303;28;19958;-61
2023/03/24 15:55:39;;;;;;;;;;;;;;;;;;5090803;28;20603;-60
2023/03/24 15:58:05;;;;;;;;;;;;;;;;;;5091824;28;19923;-61
2023/03/24 16:00:31;;;;;;;;;;;;;;;;;;5071348;28;19920;-61
2023/03/24 16:02:58;;;;;;;;;;;;;;;;;;5089078;28;20296;-61
2023/03/24 16:05:24;;;;;;;;;;;;;;;;;;5085856;28;19912;-61
2023/03/24 16:07:50;;;;;;;;;;;;;;;;;;5075298;28;19917;-61
2023/03/24 16:10:17;;;;;;;;;;;;;;;;;;5083981;28;20314;-60
2023/03/24 16:12:43;;;;;;;;;;;;;;;;;;5083833;28;19963;-61
2023/03/24 16:15:09;;;;;;;;;;;;;;;;;;5081849;28;19963;-61
2023/03/24 16:17:35;;;;;;;;;;;;;;;;;;5085464;28;20343;-61
2023/03/24 16:20:01;;;;;;;;;;;;;;;;;;5084558;28;19955;-60
2023/03/24 16:22:27;;;;;;;;;;;;;;;;;;5089745;28;20007;-60
2023/03/24 16:24:53;;;;;;;;;;;;;;;;;;5092388;28;19929;-61
2023/03/24 16:27:19;;;;;;;;;;;;;;;;;;5094945;28;19916;-60
2023/03/24 16:29:45;;;;;;;;;;;;;;;;;;5080614;28;19927;-61
2023/03/24 16:32:11;;;;;;;;;;;;;;;;;;5095685;28;19908;-60
2023/03/24 16:34:37;;;;;;;;;;;;;;;;;;5094742;28;20423;-61
2023/03/24 16:37:03;;;;;;;;;;;;;;;;;;5084800;28;19954;-61
2023/03/24 16:39:29;;;;;;;;;;;;;;;;;;5082917;28;19927;-61